Melrose, Pennsylvania
Current Conditions -  °F | °C
As of 2:54 AM on Friday 31 Oct 2014 (Local Time) from KPNE Reporting Station
Clear Clear  
Wind Chill: 41°   Ceiling: Unl
Heat Index: 41°   Visibility: 10mi
Dew Point: 32°   Wind: 0mph
Humidity: 70%   Direction: NA
Pressure: 30.04"   Gusts: NA
Location:  40.0732°N, 75.1248°W
Report Text: KPNE 310654Z AUTO 00000KT 10SM CLR 05/00 A3004 RMK AO2 SLP171 T00500000 TSNO $
Loading
Personal Weather Stations






























Interactive Weather Map
Tropical Storm Tracking
New forecast layout! Learn more

10-Day Weather Forecast

Advertisements
Track Severe Weather on mobile